Time;durP1;ratioP1;P1;durP2;ratioP2;P2;SDS_P1;SDS_P2;PMS_P1;PMS_P2;Temp;Humidity;BMP_temperature;BMP_pressure;BME280_temperature;BME280_humidity;BME280_pressure;Samples;Min_cycle;Max_cycle;Signal;HPM_P1;HPM_P2
2023/05/11 00:02:04;;;;;;;4.07;3.67;;;17.80;99.90;;;;;;4975210;28;20562;-77
2023/05/11 00:04:30;;;;;;;8.17;4.03;;;17.80;99.90;;;;;;4943176;28;20436;-78
2023/05/11 00:06:58;;;;;;;4.80;4.30;;;17.80;99.90;;;;;;4976054;28;20809;-77
2023/05/11 00:09:27;;;;;;;5.23;4.50;;;17.80;99.90;;;;;;4953203;28;21016;-77
2023/05/11 00:11:53;;;;;;;5.67;4.53;;;17.80;99.90;;;;;;4959365;28;20444;-77
2023/05/11 00:14:22;;;;;;;7.63;4.93;;;17.80;99.90;;;;;;4968052;28;20525;-78
2023/05/11 00:16:53;;;;;;;4.73;4.33;;;17.80;99.90;;;;;;4992469;28;20948;-78
2023/05/11 00:19:23;;;;;;;5.67;5.07;;;17.80;99.90;;;;;;4943142;28;20487;-78
2023/05/11 00:21:50;;;;;;;5.10;4.60;;;17.80;99.90;;;;;;4959008;28;20981;-77
2023/05/11 00:24:16;;;;;;;6.13;5.13;;;17.70;99.90;;;;;;4965356;28;20488;-77
2023/05/11 00:26:44;;;;;;;5.90;5.30;;;17.70;99.90;;;;;;4958985;28;20511;-77
2023/05/11 00:29:12;;;;;;;5.87;5.23;;;17.70;99.90;;;;;;4959346;28;20450;-78
2023/05/11 00:31:38;;;;;;;6.73;6.03;;;17.70;99.90;;;;;;4969055;28;20468;-77
2023/05/11 00:34:06;;;;;;;5.67;5.07;;;17.70;99.90;;;;;;4946468;28;20228;-77
2023/05/11 00:36:38;;;;;;;9.27;5.83;;;17.70;99.90;;;;;;4974779;28;20435;-77
2023/05/11 00:39:07;;;;;;;7.43;5.93;;;17.70;99.90;;;;;;4966737;28;20921;-77
2023/05/11 00:41:35;;;;;;;5.47;4.97;;;17.70;99.90;;;;;;4965412;28;20501;-77
2023/05/11 00:44:01;;;;;;;6.03;5.40;;;17.70;99.90;;;;;;4939925;28;21004;-77
2023/05/11 00:46:36;;;;;;;6.90;6.13;;;17.70;99.90;;;;;;4974904;28;20531;-77
2023/05/11 00:49:05;;;;;;;6.73;5.70;;;17.70;99.90;;;;;;4991528;28;20506;-77
2023/05/11 00:51:33;;;;;;;7.40;5.40;;;17.70;99.90;;;;;;4958371;28;20462;-77
2023/05/11 00:54:04;;;;;;;6.10;5.60;;;17.70;99.90;;;;;;4958415;28;20793;-77
2023/05/11 00:56:30;;;;;;;5.93;5.43;;;17.70;99.90;;;;;;4958295;28;20526;-77
2023/05/11 00:58:56;;;;;;;6.53;5.20;;;17.60;99.90;;;;;;4954619;28;20526;-77
2023/05/11 01:01:26;;;;;;;5.73;5.13;;;17.60;99.90;;;;;;4979922;28;20216;-77
2023/05/11 01:03:57;;;;;;;6.13;5.47;;;17.70;99.90;;;;;;4970371;28;20461;-77
2023/05/11 01:06:41;;;;;;;6.20;5.60;;;17.60;99.90;;;;;;4968581;28;20903;-77
2023/05/11 01:09:18;;;;;;;6.30;5.70;;;17.60;99.90;;;;;;4959466;28;20443;-77
2023/05/11 01:11:52;;;;;;;7.97;6.80;;;17.60;99.90;;;;;;4958302;28;21037;-77
2023/05/11 01:14:31;;;;;;;8.10;6.00;;;17.60;99.90;;;;;;4957902;28;20448;-77
2023/05/11 01:17:10;;;;;;;8.10;6.50;;;17.60;99.90;;;;;;4964864;28;20421;-77
2023/05/11 01:19:45;;;;;;;6.80;6.20;;;17.60;99.90;;;;;;4991229;28;20436;-77
2023/05/11 01:22:47;;;;;;;7.17;6.27;;;17.60;99.90;;;;;;4958198;28;20496;-77
2023/05/11 01:25:29;;;;;;;8.07;6.97;;;17.50;99.90;;;;;;4992277;28;20407;-77
2023/05/11 01:28:21;;;;;;;6.80;6.10;;;17.60;99.90;;;;;;4973331;28;20422;-77
2023/05/11 01:30:53;;;;;;;7.17;6.30;;;17.50;99.90;;;;;;4931993;28;20845;-77
2023/05/11 01:33:25;;;;;;;7.47;6.30;;;17.50;99.90;;;;;;4960847;28;20459;-77
2023/05/11 01:35:59;;;;;;;6.77;6.13;;;17.50;99.90;;;;;;4974871;28;20450;-77
2023/05/11 01:38:29;;;;;;;6.80;6.20;;;17.50;99.90;;;;;;4960659;28;20985;-77
2023/05/11 01:40:59;;;;;;;7.23;6.30;;;17.50;99.90;;;;;;4961971;28;20420;-76
2023/05/11 01:43:27;;;;;;;6.73;6.03;;;17.50;99.90;;;;;;4977176;28;20570;-77
2023/05/11 01:46:00;;;;;;;6.70;6.00;;;17.50;99.90;;;;;;4995178;28;20431;-77
2023/05/11 01:48:32;;;;;;;9.80;7.03;;;17.50;99.90;;;;;;4961302;28;20639;-77
2023/05/11 01:51:01;;;;;;;7.70;6.23;;;17.50;99.90;;;;;;4977281;28;20392;-77
2023/05/11 01:53:30;;;;;;;7.80;6.73;;;17.40;99.90;;;;;;4976918;28;20446;-76
2023/05/11 01:56:02;;;;;;;8.60;7.70;;;17.40;99.90;;;;;;4974524;28;20438;-77
2023/05/11 01:58:29;;;;;;;8.87;7.97;;;17.40;99.90;;;;;;4990638;28;20425;-77
2023/05/11 02:01:02;;;;;;;7.93;6.80;;;17.40;99.90;;;;;;4977541;28;20939;-77
2023/05/11 02:03:30;;;;;;;9.93;6.83;;;17.40;99.90;;;;;;4960232;28;20834;-76
2023/05/11 02:05:58;;;;;;;8.67;7.77;;;17.40;99.90;;;;;;4976516;28;20436;-77
2023/05/11 02:08:30;;;;;;;7.87;7.07;;;17.40;99.90;;;;;;4977407;28;20462;-77
2023/05/11 02:10:57;;;;;;;8.57;7.67;;;17.40;99.90;;;;;;4961020;28;20451;-77
2023/05/11 02:13:28;;;;;;;8.00;6.13;;;17.30;99.90;;;;;;4960546;28;20451;-77
2023/05/11 02:15:57;;;;;;;7.40;6.67;;;17.40;99.90;;;;;;4960922;28;20455;-77
2023/05/11 02:18:28;;;;;;;7.20;6.20;;;17.40;99.90;;;;;;4957436;28;20799;-77
2023/05/11 02:21:00;;;;;;;8.20;7.40;;;17.30;99.90;;;;;;4947659;28;20457;-76
2023/05/11 02:23:32;;;;;;;10.90;8.20;;;17.30;99.90;;;;;;4941556;28;20862;-77
2023/05/11 02:25:59;;;;;;;9.80;8.80;;;17.40;99.90;;;;;;4945551;28;20911;-76
2023/05/11 02:28:25;;;;;;;10.37;8.33;;;17.30;99.90;;;;;;4976947;28;20407;-77
2023/05/11 02:30:55;;;;;;;9.27;8.30;;;17.40;99.90;;;;;;4960179;28;20440;-76
2023/05/11 02:33:38;;;;;;;9.13;7.87;;;17.40;99.90;;;;;;4976207;28;20462;-76
2023/05/11 02:36:05;;;;;;;11.03;8.90;;;17.30;99.90;;;;;;4976254;28;20518;-77
2023/05/11 02:38:37;;;;;;;10.50;8.00;;;17.30;99.90;;;;;;4956815;28;20463;-76
2023/05/11 02:41:14;;;;;;;7.97;7.23;;;17.30;99.90;;;;;;4960200;28;20427;-76
2023/05/11 02:43:48;;;;;;;8.00;7.20;;;17.30;99.90;;;;;;4975702;28;20567;-76
2023/05/11 02:46:25;;;;;;;10.00;7.20;;;17.30;99.90;;;;;;4960772;28;20430;-76
2023/05/11 02:48:55;;;;;;;10.90;7.83;;;17.30;99.90;;;;;;4960325;28;20960;-76
2023/05/11 02:51:29;;;;;;;8.20;7.40;;;17.30;99.90;;;;;;4960388;28;20421;-77
2023/05/11 02:54:00;;;;;;;9.50;7.37;;;17.30;99.90;;;;;;4975792;28;20501;-76
2023/05/11 02:56:29;;;;;;;8.60;6.90;;;17.30;99.90;;;;;;4993781;28;20415;-77
2023/05/11 02:58:56;;;;;;;8.00;7.17;;;17.30;99.90;;;;;;4960207;28;20419;-76
2023/05/11 03:01:26;;;;;;;7.67;6.87;;;17.20;99.90;;;;;;4975934;28;20418;-77
2023/05/11 03:03:52;;;;;;;6.43;5.73;;;17.30;99.90;;;;;;4974991;28;20463;-76
2023/05/11 03:06:20;;;;;;;7.10;5.90;;;17.20;99.90;;;;;;4975242;28;20864;-76
2023/05/11 03:08:48;;;;;;;8.57;6.53;;;17.20;99.90;;;;;;4959458;28;20431;-76
2023/05/11 03:11:20;;;;;;;8.00;7.20;;;17.30;99.90;;;;;;4952089;28;20463;-76
2023/05/11 03:13:52;;;;;;;7.33;6.33;;;17.30;99.90;;;;;;4965195;28;20455;-76
2023/05/11 03:16:19;;;;;;;7.07;6.20;;;17.20;99.90;;;;;;4959989;28;20426;-76
2023/05/11 03:18:49;;;;;;;7.47;6.67;;;17.20;99.90;;;;;;4975222;28;20431;-77
2023/05/11 03:21:20;;;;;;;6.93;6.23;;;17.20;99.90;;;;;;4959637;28;20935;-76
2023/05/11 03:23:51;;;;;;;7.13;6.43;;;17.20;99.90;;;;;;4959851;28;20486;-76
2023/05/11 03:26:20;;;;;;;7.30;6.30;;;17.20;99.90;;;;;;4980254;28;20423;-77
2023/05/11 03:28:53;;;;;;;8.57;7.20;;;17.20;99.90;;;;;;4959756;28;20651;-77
2023/05/11 03:31:21;;;;;;;7.77;6.97;;;17.20;99.90;;;;;;4956465;28;20406;-77
2023/05/11 03:33:52;;;;;;;7.53;6.40;;;17.20;99.90;;;;;;4940722;28;20445;-76
2023/05/11 03:36:23;;;;;;;7.43;6.73;;;17.20;99.90;;;;;;4971183;28;20443;-77
2023/05/11 03:38:52;;;;;;;7.43;6.40;;;17.20;99.90;;;;;;4941767;28;20432;-77
2023/05/11 03:41:21;;;;;;;7.90;7.10;;;17.20;99.90;;;;;;4954734;28;20436;-77
2023/05/11 03:43:58;;;;;;;7.37;6.60;;;17.20;99.90;;;;;;4954775;28;20993;-76
2023/05/11 03:46:27;;;;;;;8.63;7.70;;;17.20;99.90;;;;;;4958898;28;20424;-76
2023/05/11 03:48:53;;;;;;;8.20;7.40;;;17.20;99.90;;;;;;4974836;28;20494;-76
2023/05/11 03:51:26;;;;;;;10.10;8.47;;;17.20;99.90;;;;;;4959311;28;20477;-76
2023/05/11 03:53:59;;;;;;;7.70;6.90;;;17.10;99.90;;;;;;4946181;28;20973;-76
2023/05/11 03:56:26;;;;;;;9.47;7.33;;;17.10;99.90;;;;;;4965797;28;20987;-76
2023/05/11 03:58:54;;;;;;;9.33;7.40;;;17.20;99.90;;;;;;4943292;28;20785;-76
2023/05/11 04:01:25;;;;;;;7.13;6.43;;;17.20;99.90;;;;;;4958738;28;20432;-76
2023/05/11 04:03:55;;;;;;;7.53;6.40;;;17.10;99.90;;;;;;4974900;28;20482;-76
2023/05/11 04:06:25;;;;;;;9.23;8.23;;;17.10;99.90;;;;;;4959049;28;20526;-76
2023/05/11 04:09:01;;;;;;;8.20;7.10;;;17.10;99.90;;;;;;4972938;28;20984;-76
2023/05/11 04:11:29;;;;;;;8.63;7.23;;;17.10;99.90;;;;;;4959031;28;20451;-77
2023/05/11 04:13:55;;;;;;;9.00;7.00;;;17.10;99.90;;;;;;4957748;28;20508;-76
2023/05/11 04:16:28;;;;;;;8.70;7.40;;;17.10;99.90;;;;;;4974995;28;20979;-77
2023/05/11 04:19:05;;;;;;;10.17;7.47;;;17.10;99.90;;;;;;4959442;28;20430;-76
2023/05/11 04:21:34;;;;;;;7.77;6.50;;;17.10;99.90;;;;;;4974639;28;20431;-76
2023/05/11 04:24:03;;;;;;;11.10;7.40;;;17.10;99.90;;;;;;4990340;28;20803;-76
2023/05/11 04:26:29;;;;;;;7.47;6.70;;;17.10;99.90;;;;;;4975167;28;20430;-77
2023/05/11 04:28:57;;;;;;;9.60;7.53;;;17.10;99.90;;;;;;4974801;28;20480;-77
2023/05/11 04:31:25;;;;;;;8.60;7.70;;;17.10;99.90;;;;;;4958659;28;20846;-77
2023/05/11 04:33:54;;;;;;;8.97;7.47;;;17.10;99.90;;;;;;4942788;28;20463;-76
2023/05/11 04:36:22;;;;;;;9.90;7.90;;;17.10;99.90;;;;;;4958408;28;20451;-74
2023/05/11 04:38:51;;;;;;;10.23;7.20;;;17.10;99.90;;;;;;4954679;28;20427;-74
2023/05/11 04:41:18;;;;;;;9.40;7.53;;;17.00;99.90;;;;;;4958867;28;20429;-75
2023/05/11 04:43:45;;;;;;;10.23;8.33;;;17.10;99.90;;;;;;4957860;28;20478;-73
2023/05/11 04:46:14;;;;;;;10.40;8.63;;;17.10;99.90;;;;;;4963881;28;20502;-75
2023/05/11 04:48:40;;;;;;;12.77;7.97;;;17.00;99.90;;;;;;4958828;28;20444;-75
2023/05/11 04:51:09;;;;;;;8.67;7.60;;;17.00;99.90;;;;;;4974393;28;20965;-75
2023/05/11 04:53:40;;;;;;;9.60;8.10;;;17.00;99.90;;;;;;4955946;28;20451;-75
2023/05/11 04:56:06;;;;;;;9.50;8.50;;;17.00;99.90;;;;;;4958933;28;20427;-75
2023/05/11 04:58:37;;;;;;;8.60;7.73;;;17.00;99.90;;;;;;4975341;28;20441;-75
2023/05/11 05:01:08;;;;;;;9.50;7.77;;;17.00;99.90;;;;;;4958431;28;20429;-75
2023/05/11 05:03:36;;;;;;;9.50;7.33;;;17.00;99.90;;;;;;4974015;28;20808;-75
2023/05/11 05:06:02;;;;;;;10.20;8.40;;;17.00;99.90;;;;;;4958309;28;20455;-75
2023/05/11 05:08:29;;;;;;;9.10;8.20;;;17.00;99.90;;;;;;4960008;28;20428;-75
2023/05/11 05:10:57;;;;;;;9.80;8.80;;;17.00;99.90;;;;;;4957565;28;20454;-75
2023/05/11 05:13:25;;;;;;;8.23;7.13;;;17.00;99.90;;;;;;4961851;28;20463;-75
2023/05/11 05:15:56;;;;;;;9.77;8.20;;;17.00;99.90;;;;;;4977061;28;21331;-74
2023/05/11 05:18:22;;;;;;;9.87;8.87;;;17.00;99.90;;;;;;4953697;28;20430;-74
2023/05/11 05:20:48;;;;;;;10.47;8.47;;;17.00;99.90;;;;;;4954559;28;20964;-75
2023/05/11 05:23:20;;;;;;;10.37;9.17;;;17.00;99.90;;;;;;4977267;28;20559;-76
2023/05/11 05:25:46;;;;;;;10.30;8.83;;;17.00;99.90;;;;;;4950003;28;20458;-75
2023/05/11 05:28:12;;;;;;;10.40;8.60;;;17.00;99.90;;;;;;4990015;28;20480;-75
2023/05/11 05:30:41;;;;;;;11.33;9.07;;;17.00;99.90;;;;;;4961747;28;20427;-75
2023/05/11 05:33:07;;;;;;;10.27;8.50;;;17.00;99.90;;;;;;4950937;28;20960;-75
2023/05/11 05:35:39;;;;;;;13.10;10.33;;;17.00;99.90;;;;;;4971292;28;20430;-75
2023/05/11 05:38:07;;;;;;;11.13;9.77;;;16.90;99.90;;;;;;4971601;28;20469;-75
2023/05/11 05:40:38;;;;;;;12.47;9.00;;;16.90;99.90;;;;;;4950641;28;20476;-75
2023/05/11 05:43:06;;;;;;;13.03;10.23;;;17.00;99.90;;;;;;4943555;28;20472;-75
2023/05/11 05:45:35;;;;;;;11.10;9.50;;;16.90;99.90;;;;;;4959915;28;20428;-75
2023/05/11 05:48:01;;;;;;;13.67;10.80;;;16.90;99.90;;;;;;4939362;28;20450;-75
2023/05/11 05:50:30;;;;;;;12.00;10.57;;;16.90;99.90;;;;;;4965431;28;20450;-75
2023/05/11 05:52:58;;;;;;;13.77;12.00;;;16.90;99.90;;;;;;4969941;28;20459;-75
2023/05/11 05:55:27;;;;;;;14.87;11.00;;;16.90;99.90;;;;;;4977475;28;20418;-75
2023/05/11 05:57:58;;;;;;;13.40;11.37;;;16.90;99.90;;;;;;4977413;28;20465;-75
2023/05/11 06:00:24;;;;;;;14.00;11.10;;;16.90;99.90;;;;;;4961901;28;20413;-75
2023/05/11 06:02:59;;;;;;;15.10;12.60;;;16.90;99.90;;;;;;4977937;28;20462;-75
2023/05/11 06:05:28;;;;;;;15.23;12.07;;;16.90;99.90;;;;;;4977543;28;20436;-75
2023/05/11 06:07:56;;;;;;;16.43;11.80;;;16.90;99.90;;;;;;4951975;28;20419;-76
2023/05/11 06:10:22;;;;;;;12.43;10.80;;;16.90;99.90;;;;;;4942503;28;20503;-76
2023/05/11 06:12:48;;;;;;;14.03;11.30;;;16.90;99.90;;;;;;4942458;28;20632;-76
2023/05/11 06:15:15;;;;;;;18.23;11.37;;;16.90;99.90;;;;;;4942259;28;20514;-75
2023/05/11 06:17:47;;;;;;;14.23;11.60;;;16.90;99.90;;;;;;4950133;28;20452;-75
2023/05/11 06:20:13;;;;;;;13.90;10.67;;;16.90;99.90;;;;;;4961419;28;20455;-76
2023/05/11 06:22:39;;;;;;;12.77;10.57;;;16.90;99.90;;;;;;4964234;28;20507;-76
2023/05/11 06:25:06;;;;;;;13.00;10.83;;;16.90;99.90;;;;;;4942702;28;20969;-75
2023/05/11 06:27:36;;;;;;;12.83;11.33;;;16.90;99.90;;;;;;4953013;28;20418;-75
2023/05/11 06:30:06;;;;;;;14.20;11.80;;;16.90;99.90;;;;;;4951789;28;20471;-75
2023/05/11 06:32:37;;;;;;;12.30;10.93;;;16.90;99.90;;;;;;4942546;28;20506;-75
2023/05/11 06:35:04;;;;;;;18.17;10.83;;;16.90;99.90;;;;;;4960281;28;20451;-76
2023/05/11 06:37:34;;;;;;;13.20;11.47;;;16.90;99.90;;;;;;4975801;28;20441;-74
2023/05/11 06:40:06;;;;;;;13.57;12.20;;;16.90;99.90;;;;;;4961852;28;20439;-79
2023/05/11 06:42:33;;;;;;;13.90;11.50;;;16.80;99.90;;;;;;4966368;28;20506;-78
2023/05/11 06:45:09;;;;;;;14.83;12.80;;;16.90;99.90;;;;;;4960850;28;20459;-78
2023/05/11 06:47:35;;;;;;;14.97;12.20;;;16.90;99.90;;;;;;4949203;28;20423;-77
2023/05/11 06:50:03;;;;;;;14.40;11.50;;;16.90;99.90;;;;;;4948622;28;20436;-78
2023/05/11 06:52:33;;;;;;;16.40;12.60;;;16.80;99.90;;;;;;4933461;28;20453;-78
2023/05/11 06:55:03;;;;;;;13.33;11.50;;;16.90;99.90;;;;;;4981534;28;20409;-78
2023/05/11 06:57:30;;;;;;;15.93;11.40;;;16.90;99.90;;;;;;4933230;28;20523;-78
2023/05/11 06:59:56;;;;;;;13.63;11.23;;;16.80;99.90;;;;;;4964402;28;20422;-79
2023/05/11 07:02:24;;;;;;;15.80;13.53;;;16.90;99.90;;;;;;4963819;28;20502;-77
2023/05/11 07:04:53;;;;;;;12.80;11.43;;;16.90;99.90;;;;;;4959241;28;20455;-74
2023/05/11 07:07:19;;;;;;;13.53;11.47;;;16.80;99.90;;;;;;4958498;28;20433;-74
2023/05/11 07:09:48;;;;;;;13.23;11.80;;;16.90;99.90;;;;;;4975507;28;20412;-74
2023/05/11 07:12:16;;;;;;;11.87;10.50;;;16.90;99.90;;;;;;4958064;28;20438;-74
2023/05/11 07:14:42;;;;;;;12.90;11.30;;;16.90;99.90;;;;;;4980158;28;20451;-74
2023/05/11 07:17:08;;;;;;;11.77;10.50;;;16.90;99.90;;;;;;4965001;28;20539;-74
2023/05/11 07:19:34;;;;;;;14.83;11.70;;;16.90;99.90;;;;;;4975279;28;20886;-74
2023/05/11 07:22:00;;;;;;;13.70;10.37;;;16.90;99.90;;;;;;4957785;28;20510;-74
2023/05/11 07:24:29;;;;;;;13.87;11.07;;;16.90;99.90;;;;;;4959675;28;20187;-74
2023/05/11 07:26:57;;;;;;;14.90;11.60;;;16.90;99.90;;;;;;4994790;28;20407;-74
2023/05/11 07:29:23;;;;;;;13.70;11.37;;;16.90;99.90;;;;;;4960899;28;20424;-73
2023/05/11 07:31:50;;;;;;;12.63;10.00;;;16.90;99.90;;;;;;4977065;28;20478;-74
2023/05/11 07:34:20;;;;;;;14.07;11.20;;;16.90;99.90;;;;;;4961198;28;20454;-74
2023/05/11 07:36:46;;;;;;;13.13;11.70;;;16.90;99.90;;;;;;4994133;28;20465;-74
2023/05/11 07:39:14;;;;;;;16.30;11.70;;;16.90;99.90;;;;;;4977031;28;20495;-74
2023/05/11 07:41:41;;;;;;;15.23;11.90;;;16.90;99.90;;;;;;4960615;28;20440;-74
2023/05/11 07:44:10;;;;;;;13.33;11.30;;;17.00;99.90;;;;;;4961354;28;20809;-74
2023/05/11 07:46:36;;;;;;;15.50;12.33;;;17.00;99.90;;;;;;4976975;28;20411;-74
2023/05/11 07:49:02;;;;;;;14.03;11.37;;;16.90;99.90;;;;;;4968574;28;20463;-74
2023/05/11 07:51:28;;;;;;;13.93;11.60;;;17.00;99.90;;;;;;4970086;28;20446;-74
2023/05/11 07:53:57;;;;;;;15.50;11.70;;;17.00;99.90;;;;;;4976824;28;20446;-74
2023/05/11 07:56:25;;;;;;;13.53;11.10;;;17.00;99.90;;;;;;4960804;28;20421;-74
2023/05/11 07:58:51;;;;;;;13.93;11.43;;;17.00;99.90;;;;;;4976514;28;20406;-74
2023/05/11 08:01:18;;;;;;;14.53;12.40;;;17.00;99.90;;;;;;4960633;28;20514;-74
2023/05/11 08:03:44;;;;;;;11.83;10.00;;;17.00;99.90;;;;;;4989415;28;20477;-74
2023/05/11 08:06:12;;;;;;;13.77;10.80;;;17.00;99.90;;;;;;4944061;28;20525;-74
2023/05/11 08:08:38;;;;;;;14.87;11.90;;;17.00;99.90;;;;;;4976539;28;20861;-74
2023/05/11 08:11:04;;;;;;;14.93;11.67;;;17.00;99.90;;;;;;4993775;28;20402;-74
2023/05/11 08:13:33;;;;;;;13.63;11.40;;;17.00;99.90;;;;;;4976327;28;20527;-74
2023/05/11 08:16:01;;;;;;;15.13;11.07;;;17.00;99.90;;;;;;4976574;28;20430;-74
2023/05/11 08:18:34;;;;;;;11.83;10.07;;;17.00;99.90;;;;;;4976459;28;20935;-74
2023/05/11 08:21:03;;;;;;;13.20;11.30;;;17.00;99.90;;;;;;4993877;28;20453;-74
2023/05/11 08:23:29;;;;;;;16.73;13.43;;;17.00;99.90;;;;;;4993617;28;20487;-74
2023/05/11 08:25:59;;;;;;;17.27;13.73;;;17.00;99.90;;;;;;4960476;28;20452;-74
2023/05/11 08:28:28;;;;;;;16.50;11.40;;;17.00;99.90;;;;;;4993700;28;20742;-74
2023/05/11 08:30:57;;;;;;;14.73;11.47;;;17.00;99.90;;;;;;4976286;28;21267;-74
2023/05/11 08:33:29;;;;;;;13.73;10.87;;;17.00;99.90;;;;;;4960146;28;20505;-74
2023/05/11 08:35:58;;;;;;;16.00;12.30;;;17.00;99.90;;;;;;4993775;28;20425;-74
2023/05/11 08:38:28;;;;;;;15.00;12.70;;;17.00;99.90;;;;;;4993609;28;20421;-74
2023/05/11 08:40:57;;;;;;;16.30;13.40;;;17.00;99.90;;;;;;4961955;28;20943;-74
2023/05/11 08:43:28;;;;;;;16.57;12.70;;;17.00;99.90;;;;;;4947864;28;20590;-74
2023/05/11 08:45:59;;;;;;;15.17;12.03;;;17.00;99.90;;;;;;4997774;28;20404;-74
2023/05/11 08:48:26;;;;;;;14.10;11.57;;;17.00;99.90;;;;;;4980305;28;20500;-74
2023/05/11 08:50:54;;;;;;;18.80;14.70;;;17.00;99.90;;;;;;4948404;28;20418;-74
2023/05/11 08:53:20;;;;;;;20.60;16.43;;;17.10;99.90;;;;;;4964058;28;20777;-74
2023/05/11 08:55:52;;;;;;;21.80;14.60;;;17.10;99.90;;;;;;4980281;28;20441;-74
2023/05/11 08:58:21;;;;;;;19.53;14.63;;;17.10;99.90;;;;;;4963999;28;20530;-74
2023/05/11 09:00:53;;;;;;;19.83;15.90;;;17.10;99.90;;;;;;4964300;28;20986;-74
2023/05/11 09:03:21;;;;;;;21.43;15.43;;;17.10;99.90;;;;;;4964485;28;20462;-74
2023/05/11 09:05:48;;;;;;;20.20;15.60;;;17.10;99.90;;;;;;4997004;28;20436;-74
2023/05/11 09:08:18;;;;;;;16.53;14.03;;;17.10;99.90;;;;;;4963637;28;20459;-74
2023/05/11 09:10:44;;;;;;;18.50;14.97;;;17.10;99.90;;;;;;4997201;28;20429;-74
2023/05/11 09:13:11;;;;;;;19.43;14.77;;;17.10;99.90;;;;;;4963544;28;20956;-74
2023/05/11 09:15:37;;;;;;;19.33;15.60;;;17.10;99.90;;;;;;4963887;28;20617;-74
2023/05/11 09:18:08;;;;;;;18.90;15.20;;;17.10;99.90;;;;;;4948067;28;20427;-74
2023/05/11 09:20:34;;;;;;;20.97;15.70;;;17.10;99.90;;;;;;4979751;28;20423;-74
2023/05/11 09:23:00;;;;;;;20.43;15.87;;;17.10;99.90;;;;;;4963243;28;20864;-74
2023/05/11 09:25:33;;;;;;;19.97;14.83;;;17.10;99.90;;;;;;4979476;28;20441;-74
2023/05/11 09:28:05;;;;;;;20.60;15.17;;;17.10;99.90;;;;;;4963070;28;20410;-74
2023/05/11 09:30:32;;;;;;;19.83;15.70;;;17.10;99.90;;;;;;4979491;28;20395;-74
2023/05/11 09:33:01;;;;;;;18.70;15.00;;;17.10;99.90;;;;;;4979346;28;20466;-74
2023/05/11 09:35:32;;;;;;;19.37;15.37;;;17.10;99.90;;;;;;4990053;28;20948;-74
2023/05/11 09:38:03;;;;;;;20.87;14.47;;;17.10;99.90;;;;;;4964671;28;20482;-74
2023/05/11 09:40:42;;;;;;;19.87;14.53;;;17.10;99.90;;;;;;4963345;28;20874;-74
2023/05/11 09:43:18;;;;;;;20.23;15.77;;;17.20;99.90;;;;;;4978668;28;20474;-74
2023/05/11 09:45:47;;;;;;;20.60;15.43;;;17.10;99.90;;;;;;4978623;28;20438;-74
2023/05/11 09:48:25;;;;;;;21.00;14.63;;;17.10;99.90;;;;;;4963151;28;20546;-74
2023/05/11 09:50:59;;;;;;;24.00;16.00;;;17.20;99.90;;;;;;4978943;28;20808;-74
2023/05/11 09:53:41;;;;;;;22.70;16.53;;;17.10;99.90;;;;;;4979023;28;20433;-74
2023/05/11 09:56:10;;;;;;;21.23;15.57;;;17.10;99.90;;;;;;4979179;28;20411;-74
2023/05/11 09:58:56;;;;;;;19.73;14.90;;;17.10;99.90;;;;;;4978835;28;20919;-74
2023/05/11 10:01:31;;;;;;;20.87;16.10;;;17.20;99.90;;;;;;4978889;28;20429;-74
2023/05/11 10:03:59;;;;;;;19.60;14.87;;;17.20;99.90;;;;;;4943111;28;20518;-73
2023/05/11 10:06:28;;;;;;;19.53;14.37;;;17.10;99.90;;;;;;4959351;28;20426;-72
2023/05/11 10:09:06;;;;;;;24.00;16.03;;;17.20;99.90;;;;;;4976601;28;20406;-72
2023/05/11 10:11:33;;;;;;;19.57;14.50;;;17.10;99.90;;;;;;4943577;28;20549;-72
2023/05/11 10:13:59;;;;;;;22.10;16.17;;;17.10;99.90;;;;;;4943386;28;20464;-75
2023/05/11 10:16:25;;;;;;;18.33;14.10;;;17.20;99.90;;;;;;4976613;28;20405;-76
2023/05/11 10:18:52;;;;;;;19.07;14.50;;;17.20;99.90;;;;;;4955146;28;20448;-77
2023/05/11 10:21:18;;;;;;;20.27;14.10;;;17.20;99.90;;;;;;4964214;28;20489;-78
2023/05/11 10:23:50;;;;;;;23.60;16.17;;;17.20;99.90;;;;;;4980426;28;20551;-77
2023/05/11 10:26:19;;;;;;;23.03;15.97;;;17.20;99.90;;;;;;4996903;28;20893;-76
2023/05/11 10:28:45;;;;;;;24.63;15.70;;;17.20;99.90;;;;;;4963525;28;20455;-77
2023/05/11 10:31:12;;;;;;;19.60;14.80;;;17.20;99.90;;;;;;4967266;28;20437;-79
2023/05/11 10:33:40;;;;;;;22.67;16.23;;;17.20;99.90;;;;;;4961121;28;20996;-83
2023/05/11 10:36:08;;;;;;;21.30;16.30;;;17.20;99.90;;;;;;4959025;28;20428;-84
2023/05/11 10:38:36;;;;;;;20.67;15.10;;;17.20;99.90;;;;;;4962022;28;20422;-83
2023/05/11 10:41:22;;;;;;;22.17;15.50;;;17.20;99.90;;;;;;4967564;28;20423;-78
2023/05/11 10:44:13;;;;;;;27.40;18.07;;;17.20;99.90;;;;;;4954669;28;20578;-78
2023/05/11 10:47:26;;;;;;;22.63;17.17;;;17.20;99.90;;;;;;4964313;28;20460;-77
2023/05/11 10:50:17;;;;;;;24.07;16.83;;;17.20;99.90;;;;;;4968771;28;20919;-78
2023/05/11 10:53:09;;;;;;;22.83;17.00;;;17.20;99.90;;;;;;4967725;28;21129;-80
2023/05/11 10:55:38;;;;;;;23.03;16.10;;;17.20;99.90;;;;;;4956658;28;20426;-77
2023/05/11 10:58:09;;;;;;;20.63;14.63;;;17.20;99.90;;;;;;4948789;28;20514;-79
2023/05/11 11:00:42;;;;;;;23.27;16.33;;;17.30;99.90;;;;;;4948652;28;20441;-78
2023/05/11 11:03:11;;;;;;;20.23;15.50;;;17.20;99.90;;;;;;4964907;28;20562;-77
2023/05/11 11:05:37;;;;;;;23.50;14.63;;;17.30;99.90;;;;;;4979914;28;20440;-77
2023/05/11 11:08:06;;;;;;;23.47;13.97;;;17.30;99.90;;;;;;4949911;28;20448;-79
2023/05/11 11:10:42;;;;;;;20.33;15.53;;;17.30;99.90;;;;;;4957288;28;20509;-77
2023/05/11 11:13:23;;;;;;;19.00;14.23;;;17.40;99.90;;;;;;4968168;28;20451;-78
2023/05/11 11:15:54;;;;;;;19.97;14.57;;;17.30;99.90;;;;;;4963164;28;20448;-77
2023/05/11 11:18:30;;;;;;;21.73;15.43;;;17.30;99.90;;;;;;4965530;28;20424;-78
2023/05/11 11:21:00;;;;;;;19.07;14.27;;;17.40;99.90;;;;;;4949775;28;20455;-78
2023/05/11 11:23:44;;;;;;;24.50;15.63;;;17.40;99.90;;;;;;4967470;28;21000;-77
2023/05/11 11:26:15;;;;;;;20.90;15.37;;;17.40;99.90;;;;;;4980829;28;20788;-79
2023/05/11 11:28:59;;;;;;;22.97;14.60;;;17.40;99.90;;;;;;4984999;28;20410;-78
2023/05/11 11:31:34;;;;;;;19.40;13.97;;;17.40;99.90;;;;;;4937392;28;20942;-79
2023/05/11 11:34:26;;;;;;;16.33;13.50;;;17.50;99.90;;;;;;4938581;28;20459;-78
2023/05/11 11:37:02;;;;;;;17.70;13.67;;;17.50;99.90;;;;;;4951211;28;20448;-79
2023/05/11 11:39:48;;;;;;;17.63;13.60;;;17.50;99.90;;;;;;4948243;28;20804;-77
2023/05/11 11:42:17;;;;;;;17.10;13.37;;;17.50;99.90;;;;;;4963832;28;20472;-77
2023/05/11 11:44:45;;;;;;;17.60;13.57;;;17.50;99.90;;;;;;4960173;28;20436;-77
2023/05/11 11:47:18;;;;;;;15.90;13.00;;;17.50;99.90;;;;;;4967377;28;20429;-78
2023/05/11 11:49:46;;;;;;;17.07;13.20;;;17.60;99.90;;;;;;4948978;28;20441;-77
2023/05/11 11:52:32;;;;;;;19.17;14.50;;;17.60;99.90;;;;;;4953185;28;20486;-77
2023/05/11 11:55:00;;;;;;;19.47;15.33;;;17.60;99.90;;;;;;4966768;28;20487;-77
2023/05/11 11:57:34;;;;;;;16.93;13.80;;;17.60;99.90;;;;;;4948100;28;20451;-77
2023/05/11 12:00:06;;;;;;;19.00;14.70;;;17.60;99.90;;;;;;4963448;28;20830;-78
2023/05/11 12:02:43;;;;;;;22.73;14.37;;;17.70;99.90;;;;;;4949174;28;20551;-78
2023/05/11 12:05:17;;;;;;;16.30;13.50;;;17.70;99.90;;;;;;4945091;28;20514;-78
2023/05/11 12:07:49;;;;;;;15.73;11.10;;;17.70;99.90;;;;;;4964143;28;20867;-79
2023/05/11 12:10:20;;;;;;;19.20;14.00;;;17.70;99.90;;;;;;4982992;28;20444;-79
2023/05/11 12:12:48;;;;;;;16.47;12.53;;;17.70;99.90;;;;;;4965993;28;20465;-77
2023/05/11 12:15:24;;;;;;;15.70;12.57;;;17.70;99.90;;;;;;4963366;28;20454;-78
2023/05/11 12:17:53;;;;;;;17.33;14.00;;;17.80;99.90;;;;;;4963652;28;20536;-77
2023/05/11 12:20:20;;;;;;;14.83;11.70;;;17.80;99.90;;;;;;4952739;28;20425;-78
2023/05/11 12:22:47;;;;;;;22.40;16.70;;;17.80;99.90;;;;;;4947696;28;20472;-78
2023/05/11 12:25:20;;;;;;;18.43;14.13;;;17.80;99.90;;;;;;4964110;28;20438;-77
2023/05/11 12:27:50;;;;;;;16.57;13.20;;;17.90;99.90;;;;;;4944920;28;20932;-77
2023/05/11 12:30:20;;;;;;;18.60;13.80;;;17.90;99.90;;;;;;4956576;28;20488;-82
2023/05/11 12:32:54;;;;;;;20.10;13.80;;;17.90;99.90;;;;;;4976644;28;20444;-77
2023/05/11 12:35:28;;;;;;;21.43;14.90;;;17.90;99.90;;;;;;4938261;28;20974;-79
2023/05/11 12:38:03;;;;;;;22.70;16.47;;;17.90;99.90;;;;;;4947963;28;20940;-77
2023/05/11 12:40:32;;;;;;;20.73;15.47;;;17.90;99.90;;;;;;4963103;28;20479;-80
2023/05/11 12:42:59;;;;;;;18.83;14.60;;;18.00;99.90;;;;;;4946204;28;20668;-80
2023/05/11 12:45:28;;;;;;;21.70;14.83;;;18.00;99.90;;;;;;4956917;28;20920;-80
2023/05/11 12:47:59;;;;;;;18.13;15.40;;;18.00;99.90;;;;;;4959406;28;20503;-80
2023/05/11 12:50:25;;;;;;;18.53;15.10;;;18.00;99.90;;;;;;4961178;28;20574;-81
2023/05/11 12:52:51;;;;;;;16.37;14.60;;;18.00;99.90;;;;;;4951717;28;20966;-80